Time;durP1;ratioP1;P1;durP2;ratioP2;P2;SDS_P1;SDS_P2;PMS_P1;PMS_P2;Temp;Humidity;BMP_temperature;BMP_pressure;BME280_temperature;BME280_humidity;BME280_pressure;Samples;Min_cycle;Max_cycle;Signal;HPM_P1;HPM_P2
2022/09/29 00:01:42;;;;;;;3.07;2.40;;;;;;;;;;4954107;28;20211;-80
2022/09/29 00:04:08;;;;;;;3.03;2.60;;;;;;;;;;4954048;28;20682;-80
2022/09/29 00:06:34;;;;;;;3.17;2.47;;;;;;;;;;4954177;28;20697;-80
2022/09/29 00:09:00;;;;;;;3.97;2.40;;;;;;;;;;4953717;28;20595;-80
2022/09/29 00:11:26;;;;;;;2.80;2.50;;;;;;;;;;4937866;29;20221;-80
2022/09/29 00:13:54;;;;;;;2.93;2.60;;;;;;;;;;4954161;28;20215;-80
2022/09/29 00:16:20;;;;;;;3.43;2.70;;;;;;;;;;4953873;28;20179;-80
2022/09/29 00:18:46;;;;;;;2.70;2.43;;;;;;;;;;4953972;28;20217;-81
2022/09/29 00:21:14;;;;;;;3.13;2.40;;;;;;;;;;4953756;28;20182;-80
2022/09/29 00:23:40;;;;;;;2.50;2.30;;;;;;;;;;4953737;28;20230;-80
2022/09/29 00:26:06;;;;;;;2.77;2.30;;;;;;;;;;4938194;29;20186;-80
2022/09/29 00:28:33;;;;;;;2.63;2.40;;;;;;;;;;4953848;28;20207;-80
2022/09/29 00:31:00;;;;;;;3.87;2.60;;;;;;;;;;4953549;28;20235;-80
2022/09/29 00:33:26;;;;;;;2.67;2.27;;;;;;;;;;4953680;28;20216;-80
2022/09/29 00:35:57;;;;;;;3.37;2.20;;;;;;;;;;4937701;29;20201;-80
2022/09/29 00:38:23;;;;;;;2.30;2.10;;;;;;;;;;4938036;29;20181;-80
2022/09/29 00:40:49;;;;;;;2.40;2.20;;;;;;;;;;4937736;29;20202;-80
2022/09/29 00:43:19;;;;;;;3.70;2.40;;;;;;;;;;4937837;29;20349;-80
2022/09/29 00:45:45;;;;;;;2.67;2.20;;;;;;;;;;4953617;28;20179;-80
2022/09/29 00:48:18;;;;;;;3.93;2.33;;;;;;;;;;4937550;29;20184;-80
2022/09/29 00:50:50;;;;;;;3.90;2.40;;;;;;;;;;4953119;28;20183;-80
2022/09/29 00:53:16;;;;;;;5.27;2.40;;;;;;;;;;4937760;29;20295;-80
2022/09/29 00:55:45;;;;;;;2.40;2.10;;;;;;;;;;4953632;28;20662;-80
2022/09/29 00:58:22;;;;;;;2.77;2.23;;;;;;;;;;4953544;28;20184;-80
2022/09/29 01:00:48;;;;;;;2.70;2.20;;;;;;;;;;4953580;28;20176;-80
2022/09/29 01:03:18;;;;;;;2.87;2.43;;;;;;;;;;4953330;28;20215;-80
2022/09/29 01:05:51;;;;;;;2.90;2.40;;;;;;;;;;4938168;29;20214;-80
2022/09/29 01:08:26;;;;;;;2.57;2.20;;;;;;;;;;4957284;28;20186;-80
2022/09/29 01:10:52;;;;;;;2.53;2.27;;;;;;;;;;4941337;29;20206;-80
2022/09/29 01:13:18;;;;;;;2.50;2.30;;;;;;;;;;4941234;29;20200;-80
2022/09/29 01:15:44;;;;;;;2.23;2.03;;;;;;;;;;4957049;28;20683;-80
2022/09/29 01:18:11;;;;;;;2.30;2.00;;;;;;;;;;4957116;28;20190;-80
2022/09/29 01:20:41;;;;;;;2.83;2.00;;;;;;;;;;4941188;29;20194;-80
2022/09/29 01:23:20;;;;;;;4.93;2.43;;;;;;;;;;4957265;28;20199;-80
2022/09/29 01:26:09;;;;;;;2.37;2.17;;;;;;;;;;4956879;28;20220;-80
2022/09/29 01:28:50;;;;;;;2.73;2.07;;;;;;;;;;4949239;29;20251;-80
2022/09/29 01:31:28;;;;;;;2.67;1.90;;;;;;;;;;4956807;28;20183;-80
2022/09/29 01:34:05;;;;;;;2.73;1.90;;;;;;;;;;4956953;28;20255;-80
2022/09/29 01:36:49;;;;;;;2.30;2.10;;;;;;;;;;4956542;28;20179;-80
2022/09/29 01:39:36;;;;;;;3.63;1.90;;;;;;;;;;4956454;28;20187;-80
2022/09/29 01:42:02;;;;;;;3.03;1.97;;;;;;;;;;4956577;28;20209;-80
2022/09/29 01:44:39;;;;;;;3.37;1.80;;;;;;;;;;4956865;28;20192;-80
2022/09/29 01:47:07;;;;;;;2.87;2.00;;;;;;;;;;4956584;28;20661;-80
2022/09/29 01:49:36;;;;;;;2.43;2.23;;;;;;;;;;4956425;28;20273;-80
2022/09/29 01:52:06;;;;;;;2.50;2.20;;;;;;;;;;4940443;29;20204;-80
2022/09/29 01:54:40;;;;;;;2.10;1.90;;;;;;;;;;4956366;28;20171;-80
2022/09/29 01:57:09;;;;;;;2.60;2.00;;;;;;;;;;4956642;28;20664;-80
2022/09/29 01:59:44;;;;;;;3.77;2.30;;;;;;;;;;4940386;29;20192;-80
2022/09/29 02:02:14;;;;;;;3.77;2.50;;;;;;;;;;4956480;28;20203;-80
2022/09/29 02:04:46;;;;;;;2.50;1.90;;;;;;;;;;4956469;28;20184;-80
2022/09/29 02:07:24;;;;;;;3.23;1.80;;;;;;;;;;4940485;29;20552;-80
2022/09/29 02:09:52;;;;;;;3.30;2.00;;;;;;;;;;4955856;28;20215;-80
2022/09/29 02:12:21;;;;;;;4.23;2.20;;;;;;;;;;4955934;28;20213;-80
2022/09/29 02:14:48;;;;;;;3.50;2.10;;;;;;;;;;4956191;28;20185;-80
2022/09/29 02:17:18;;;;;;;2.80;2.00;;;;;;;;;;4955862;28;20184;-80
2022/09/29 02:19:45;;;;;;;2.20;2.00;;;;;;;;;;4955956;28;20188;-80
2022/09/29 02:22:11;;;;;;;2.10;1.93;;;;;;;;;;4940147;29;20574;-80
2022/09/29 02:24:38;;;;;;;3.43;2.03;;;;;;;;;;4955852;28;20550;-80
2022/09/29 02:27:04;;;;;;;3.30;2.10;;;;;;;;;;4940151;29;20188;-80
2022/09/29 02:29:31;;;;;;;3.23;2.27;;;;;;;;;;4940023;29;20576;-80
2022/09/29 02:32:00;;;;;;;2.83;2.00;;;;;;;;;;4955923;28;20258;-80
2022/09/29 02:34:27;;;;;;;2.20;2.00;;;;;;;;;;4940382;29;20659;-80
2022/09/29 02:36:53;;;;;;;2.67;2.07;;;;;;;;;;4955886;29;20183;-80
2022/09/29 02:39:26;;;;;;;2.30;2.03;;;;;;;;;;4956758;28;20179;-80
2022/09/29 02:41:52;;;;;;;2.30;2.10;;;;;;;;;;4956029;28;20206;-80
2022/09/29 02:44:29;;;;;;;4.10;2.17;;;;;;;;;;4955538;28;20194;-80
2022/09/29 02:47:10;;;;;;;2.90;2.40;;;;;;;;;;4955584;28;20182;-80
2022/09/29 02:50:00;;;;;;;3.27;2.10;;;;;;;;;;4955189;28;20211;-80
2022/09/29 02:52:45;;;;;;;2.93;2.00;;;;;;;;;;4956575;28;20283;-80
2022/09/29 02:55:18;;;;;;;4.17;2.40;;;;;;;;;;4955543;28;20187;-80
2022/09/29 02:57:47;;;;;;;2.80;2.30;;;;;;;;;;4955310;28;20174;-80
2022/09/29 03:00:15;;;;;;;3.67;1.87;;;;;;;;;;4955297;28;20220;-80
2022/09/29 03:02:42;;;;;;;2.83;1.90;;;;;;;;;;4939600;29;20208;-80
2022/09/29 03:05:09;;;;;;;2.90;2.60;;;;;;;;;;4939658;29;20278;-80
2022/09/29 03:07:36;;;;;;;3.33;2.20;;;;;;;;;;4956453;28;20191;-80
2022/09/29 03:10:02;;;;;;;3.20;2.30;;;;;;;;;;4954786;28;20201;-80
2022/09/29 03:12:28;;;;;;;6.97;2.20;;;;;;;;;;4955044;28;20206;-80
2022/09/29 03:14:54;;;;;;;4.10;2.10;;;;;;;;;;4939044;29;20183;-80
2022/09/29 03:17:20;;;;;;;2.80;2.50;;;;;;;;;;4939227;29;20183;-80
2022/09/29 03:19:46;;;;;;;2.90;2.13;;;;;;;;;;4954912;29;20205;-80
2022/09/29 03:22:13;;;;;;;2.50;2.30;;;;;;;;;;4939120;29;20230;-80
2022/09/29 03:24:39;;;;;;;3.67;2.90;;;;;;;;;;4954849;28;20178;-80
2022/09/29 03:27:05;;;;;;;5.03;2.40;;;;;;;;;;4954639;28;20188;-80
2022/09/29 03:29:31;;;;;;;2.60;2.40;;;;;;;;;;4937965;29;20574;-80
2022/09/29 03:31:59;;;;;;;2.10;1.90;;;;;;;;;;4954568;28;20210;-80
2022/09/29 03:34:25;;;;;;;2.50;2.30;;;;;;;;;;4954686;28;20673;-80
2022/09/29 03:36:51;;;;;;;2.40;1.90;;;;;;;;;;4954752;29;20187;-80
2022/09/29 03:39:17;;;;;;;3.10;2.20;;;;;;;;;;4938978;29;20186;-80
2022/09/29 03:41:43;;;;;;;3.47;2.60;;;;;;;;;;4938612;29;20247;-80
2022/09/29 03:44:09;;;;;;;4.43;2.50;;;;;;;;;;4938796;29;20323;-80
2022/09/29 03:46:35;;;;;;;3.70;2.40;;;;;;;;;;4938720;29;20287;-80
2022/09/29 03:49:01;;;;;;;2.90;2.07;;;;;;;;;;4938304;29;20217;-80
2022/09/29 03:51:27;;;;;;;3.90;2.27;;;;;;;;;;4938905;29;20181;-80
2022/09/29 03:53:53;;;;;;;2.50;2.30;;;;;;;;;;4938433;29;20601;-80
2022/09/29 03:56:19;;;;;;;4.67;2.30;;;;;;;;;;4954111;28;20553;-80
2022/09/29 03:58:45;;;;;;;3.73;2.30;;;;;;;;;;4938140;29;20188;-80
2022/09/29 04:01:11;;;;;;;2.87;2.13;;;;;;;;;;4954134;28;20194;-80
2022/09/29 04:03:37;;;;;;;2.80;2.40;;;;;;;;;;4954203;28;20203;-80
2022/09/29 04:06:03;;;;;;;2.93;2.50;;;;;;;;;;4938473;29;20183;-80
2022/09/29 04:08:29;;;;;;;3.60;2.30;;;;;;;;;;4938277;29;20238;-80
2022/09/29 04:10:55;;;;;;;3.83;2.30;;;;;;;;;;4953679;28;20212;-80
2022/09/29 04:13:21;;;;;;;3.37;2.17;;;;;;;;;;4938239;29;20248;-80
2022/09/29 04:15:50;;;;;;;2.60;2.40;;;;;;;;;;4953943;28;20201;-80
2022/09/29 04:18:16;;;;;;;2.93;2.70;;;;;;;;;;4937714;29;20272;-80
2022/09/29 04:20:42;;;;;;;3.33;2.67;;;;;;;;;;4938040;29;20342;-80
2022/09/29 04:23:08;;;;;;;3.33;2.60;;;;;;;;;;4954043;28;20682;-80
2022/09/29 04:25:34;;;;;;;3.83;2.83;;;;;;;;;;4937836;29;20221;-80
2022/09/29 04:28:00;;;;;;;3.33;2.90;;;;;;;;;;4953899;28;20183;-80
2022/09/29 04:30:27;;;;;;;3.63;2.50;;;;;;;;;;4953337;28;20313;-80
2022/09/29 04:32:53;;;;;;;3.53;2.50;;;;;;;;;;4972759;23;20240;-80
2022/09/29 04:35:19;;;;;;;4.00;2.50;;;;;;;;;;4995826;28;20176;-80
2022/09/29 04:37:45;;;;;;;2.60;2.40;;;;;;;;;;5011954;28;20172;-80
2022/09/29 04:40:11;;;;;;;5.30;2.57;;;;;;;;;;4995378;28;20268;-80
2022/09/29 04:42:37;;;;;;;3.10;2.37;;;;;;;;;;4992350;28;20541;-80
2022/09/29 04:45:03;;;;;;;3.43;2.70;;;;;;;;;;4992255;28;20187;-80
2022/09/29 04:47:29;;;;;;;4.20;3.27;;;;;;;;;;4992451;28;20639;-80
2022/09/29 04:49:55;;;;;;;5.73;3.90;;;;;;;;;;4992157;28;20213;-80
2022/09/29 04:52:21;;;;;;;4.23;3.30;;;;;;;;;;5008385;28;20353;-80
2022/09/29 04:54:47;;;;;;;6.77;3.00;;;;;;;;;;5008262;28;20657;-80
2022/09/29 04:57:13;;;;;;;3.73;3.03;;;;;;;;;;4992355;28;20255;-80
2022/09/29 04:59:39;;;;;;;3.50;2.90;;;;;;;;;;4992057;28;20183;-80
2022/09/29 05:02:05;;;;;;;3.07;2.67;;;;;;;;;;4992105;28;20256;-80
2022/09/29 05:04:31;;;;;;;4.83;3.00;;;;;;;;;;4992035;28;20188;-80
2022/09/29 05:06:57;;;;;;;2.97;2.57;;;;;;;;;;4993137;28;20183;-77
2022/09/29 05:09:23;;;;;;;4.97;2.70;;;;;;;;;;4992505;28;20208;-78
2022/09/29 05:11:49;;;;;;;3.40;3.00;;;;;;;;;;4993326;28;20192;-78
2022/09/29 05:14:15;;;;;;;3.77;2.90;;;;;;;;;;4992604;28;20271;-78
2022/09/29 05:16:41;;;;;;;3.47;2.70;;;;;;;;;;4992985;28;20619;-78
2022/09/29 05:19:07;;;;;;;3.77;2.60;;;;;;;;;;5009100;28;20181;-78
2022/09/29 05:21:33;;;;;;;3.53;3.10;;;;;;;;;;5008822;28;20640;-79
2022/09/29 05:23:59;;;;;;;6.07;2.60;;;;;;;;;;4992869;28;20350;-79
2022/09/29 05:26:25;;;;;;;3.70;2.70;;;;;;;;;;4992914;28;20193;-78
2022/09/29 05:28:51;;;;;;;3.10;2.80;;;;;;;;;;4992546;28;20209;-79
2022/09/29 05:31:17;;;;;;;3.43;2.87;;;;;;;;;;4992782;28;20631;-78
2022/09/29 05:33:44;;;;;;;4.70;2.70;;;;;;;;;;5008821;28;20213;-78
2022/09/29 05:36:11;;;;;;;2.47;2.27;;;;;;;;;;5008831;28;20657;-79
2022/09/29 05:38:37;;;;;;;3.00;2.70;;;;;;;;;;4992840;28;20205;-79
2022/09/29 05:41:04;;;;;;;4.97;2.87;;;;;;;;;;5008314;28;20258;-79
2022/09/29 05:43:30;;;;;;;2.90;2.60;;;;;;;;;;5008800;28;20200;-79
2022/09/29 05:46:00;;;;;;;4.80;2.80;;;;;;;;;;5009114;28;20177;-78
2022/09/29 05:48:29;;;;;;;3.97;2.90;;;;;;;;;;5008872;28;20643;-78
2022/09/29 05:50:55;;;;;;;3.00;2.70;;;;;;;;;;4992640;28;20745;-79
2022/09/29 05:53:21;;;;;;;3.50;2.97;;;;;;;;;;4995426;28;20196;-79
2022/09/29 05:55:47;;;;;;;3.80;3.27;;;;;;;;;;4995987;28;20186;-79
2022/09/29 05:58:13;;;;;;;5.60;3.00;;;;;;;;;;4996254;28;20202;-79
2022/09/29 06:00:39;;;;;;;3.37;3.00;;;;;;;;;;4995986;28;20656;-80
2022/09/29 06:03:05;;;;;;;4.67;2.93;;;;;;;;;;5011703;28;20214;-79
2022/09/29 06:05:31;;;;;;;3.93;3.43;;;;;;;;;;4995835;28;20186;-78
2022/09/29 06:07:57;;;;;;;3.53;3.23;;;;;;;;;;4996584;28;20207;-80
2022/09/29 06:10:23;;;;;;;3.77;3.10;;;;;;;;;;5010945;28;20218;-81
2022/09/29 06:12:49;;;;;;;4.03;3.10;;;;;;;;;;4994752;28;20204;-81
2022/09/29 06:15:15;;;;;;;3.77;3.37;;;;;;;;;;5011161;28;20228;-81
2022/09/29 06:17:41;;;;;;;5.20;4.13;;;;;;;;;;4995490;28;20179;-79
2022/09/29 06:20:08;;;;;;;5.07;3.40;;;;;;;;;;4995200;28;20617;-79
2022/09/29 06:22:34;;;;;;;4.77;3.30;;;;;;;;;;4995555;28;20291;-79
2022/09/29 06:25:00;;;;;;;4.33;3.20;;;;;;;;;;5011673;28;20238;-79
2022/09/29 06:27:26;;;;;;;5.07;3.43;;;;;;;;;;5011515;28;20190;-79
2022/09/29 06:29:52;;;;;;;5.60;3.20;;;;;;;;;;4995225;28;20206;-79
2022/09/29 06:32:18;;;;;;;4.37;3.60;;;;;;;;;;5011240;28;20210;-80
2022/09/29 06:37:34;;;;;;;6.37;3.40;;;;;;;;;;4995728;28;20243;-79
2022/09/29 06:40:00;;;;;;;3.90;3.53;;;;;;;;;;5011820;28;20620;-79
2022/09/29 06:42:26;;;;;;;4.80;3.70;;;;;;;;;;4995550;28;20290;-79
2022/09/29 06:44:53;;;;;;;7.27;4.47;;;;;;;;;;4995864;28;20186;-79
2022/09/29 06:47:20;;;;;;;5.47;3.90;;;;;;;;;;4995835;28;20197;-79
2022/09/29 06:49:45;;;;;;;3.73;3.20;;;;;;;;;;4995307;28;20214;-79
2022/09/29 06:52:11;;;;;;;4.83;4.17;;;;;;;;;;4995019;28;20199;-78
2022/09/29 06:54:37;;;;;;;4.50;4.10;;;;;;;;;;4994333;28;20186;-79
2022/09/29 06:57:03;;;;;;;4.37;3.97;;;;;;;;;;4979977;28;20181;-79
2022/09/29 06:59:29;;;;;;;4.40;3.90;;;;;;;;;;4994884;28;20237;-79
2022/09/29 07:01:55;;;;;;;6.13;4.20;;;;;;;;;;4978191;28;20278;-79
2022/09/29 07:04:21;;;;;;;6.33;3.40;;;;;;;;;;4993102;28;20602;-78
2022/09/29 07:06:48;;;;;;;5.67;3.97;;;;;;;;;;4996388;28;20226;-79
2022/09/29 07:09:17;;;;;;;4.43;3.57;;;;;;;;;;4996416;28;20310;-79
2022/09/29 07:11:45;;;;;;;4.63;3.90;;;;;;;;;;5010446;28;20178;-79
2022/09/29 07:14:11;;;;;;;4.60;3.97;;;;;;;;;;5010595;28;20272;-79
2022/09/29 07:16:37;;;;;;;4.97;4.27;;;;;;;;;;4995770;28;20210;-79
2022/09/29 07:19:03;;;;;;;5.07;3.73;;;;;;;;;;5010376;28;20196;-79
2022/09/29 07:21:29;;;;;;;4.93;3.87;;;;;;;;;;4978088;28;20180;-79
2022/09/29 07:23:55;;;;;;;6.70;3.97;;;;;;;;;;4994529;28;20226;-79
2022/09/29 07:26:21;;;;;;;6.13;4.03;;;;;;;;;;4978380;28;20277;-79
2022/09/29 07:28:47;;;;;;;5.20;4.10;;;;;;;;;;5010230;28;20209;-79
2022/09/29 07:31:14;;;;;;;4.57;3.97;;;;;;;;;;5010635;28;20230;-79
2022/09/29 07:33:40;;;;;;;5.17;4.30;;;;;;;;;;4995445;28;20217;-79
2022/09/29 07:36:06;;;;;;;4.90;3.97;;;;;;;;;;4994522;28;20175;-79
2022/09/29 07:38:32;;;;;;;5.47;3.83;;;;;;;;;;4977991;28;20180;-79
2022/09/29 07:41:02;;;;;;;5.63;4.13;;;;;;;;;;4978070;28;20603;-79
2022/09/29 07:43:29;;;;;;;5.23;4.17;;;;;;;;;;4978076;28;20207;-79
2022/09/29 07:45:55;;;;;;;4.43;4.00;;;;;;;;;;4978109;28;20187;-79
2022/09/29 07:48:21;;;;;;;5.53;4.10;;;;;;;;;;4995317;28;20171;-79
2022/09/29 07:50:47;;;;;;;5.10;4.40;;;;;;;;;;4977745;28;20298;-79
2022/09/29 07:53:13;;;;;;;5.60;4.30;;;;;;;;;;5010479;28;20283;-79
2022/09/29 07:55:40;;;;;;;5.53;4.60;;;;;;;;;;5010298;28;20186;-79
2022/09/29 07:58:06;;;;;;;6.90;4.97;;;;;;;;;;5010354;28;20179;-79
2022/09/29 08:00:32;;;;;;;8.30;5.50;;;;;;;;;;5010483;28;20547;-79
2022/09/29 08:03:01;;;;;;;6.47;5.77;;;;;;;;;;5010021;28;20248;-79
2022/09/29 08:05:27;;;;;;;6.07;5.23;;;;;;;;;;4978198;28;20184;-79
2022/09/29 08:07:53;;;;;;;7.63;5.77;;;;;;;;;;4977356;28;20250;-79
2022/09/29 08:10:19;;;;;;;6.57;5.37;;;;;;;;;;4977420;28;20207;-79
2022/09/29 08:12:45;;;;;;;7.63;5.70;;;;;;;;;;4977877;28;20207;-79
2022/09/29 08:15:11;;;;;;;7.83;5.90;;;;;;;;;;4977237;28;20180;-79
2022/09/29 08:17:37;;;;;;;7.50;6.00;;;;;;;;;;5010298;28;20271;-79
2022/09/29 08:20:03;;;;;;;8.93;6.10;;;;;;;;;;4977279;28;20234;-79
2022/09/29 08:22:29;;;;;;;9.00;6.40;;;;;;;;;;4978047;28;20215;-79
2022/09/29 08:24:55;;;;;;;8.67;6.57;;;;;;;;;;4977040;28;20184;-79
2022/09/29 08:27:21;;;;;;;7.80;6.27;;;;;;;;;;4977199;28;20179;-79
2022/09/29 08:29:47;;;;;;;9.53;6.30;;;;;;;;;;4976282;28;20589;-79
2022/09/29 08:32:14;;;;;;;7.47;6.27;;;;;;;;;;4977730;28;20215;-79
2022/09/29 08:34:40;;;;;;;8.43;6.80;;;;;;;;;;4977560;28;20186;-79
2022/09/29 08:37:06;;;;;;;10.07;6.70;;;;;;;;;;5009845;28;20182;-79
2022/09/29 08:39:34;;;;;;;8.27;5.90;;;;;;;;;;4977183;28;20270;-79
2022/09/29 08:42:21;;;;;;;10.07;6.97;;;;;;;;;;4977861;28;20266;-79
2022/09/29 08:44:55;;;;;;;9.70;7.10;;;;;;;;;;5009755;28;20183;-79
2022/09/29 08:47:28;;;;;;;8.63;6.83;;;;;;;;;;5009649;28;20175;-79
2022/09/29 08:50:04;;;;;;;9.73;7.73;;;;;;;;;;5009231;28;20205;-79
2022/09/29 08:52:31;;;;;;;10.50;7.73;;;;;;;;;;5009558;28;20213;-79
2022/09/29 08:55:00;;;;;;;9.37;7.40;;;;;;;;;;4977582;28;20195;-79
2022/09/29 08:57:26;;;;;;;12.07;7.37;;;;;;;;;;4994804;28;20183;-79
2022/09/29 08:59:57;;;;;;;9.30;7.33;;;;;;;;;;4977066;28;20183;-79
2022/09/29 09:02:38;;;;;;;9.30;7.30;;;;;;;;;;5009589;28;20204;-79
2022/09/29 09:05:27;;;;;;;8.17;6.40;;;;;;;;;;5009715;28;20533;-79
2022/09/29 09:07:55;;;;;;;8.40;5.90;;;;;;;;;;4994370;28;20635;-79
2022/09/29 09:10:27;;;;;;;9.10;6.03;;;;;;;;;;5009235;28;20207;-79
2022/09/29 09:13:09;;;;;;;8.03;6.07;;;;;;;;;;4995079;28;20191;-79
2022/09/29 09:15:41;;;;;;;7.33;6.17;;;;;;;;;;5009864;28;20170;-79
2022/09/29 09:18:18;;;;;;;10.57;6.40;;;;;;;;;;5009225;28;20180;-79
2022/09/29 09:20:49;;;;;;;7.77;5.70;;;;;;;;;;5009211;28;20175;-79
2022/09/29 09:23:23;;;;;;;8.13;5.40;;;;;;;;;;5009294;28;20226;-79
2022/09/29 09:25:52;;;;;;;7.30;5.93;;;;;;;;;;4994562;28;20172;-79
2022/09/29 09:28:21;;;;;;;7.83;5.53;;;;;;;;;;5012373;28;20175;-79
2022/09/29 09:30:46;;;;;;;8.63;4.77;;;;;;;;;;5012743;28;20208;-79
2022/09/29 09:33:19;;;;;;;7.77;4.83;;;;;;;;;;5013012;28;20211;-79
2022/09/29 09:35:51;;;;;;;6.10;4.90;;;;;;;;;;5013230;28;20211;-79
2022/09/29 09:38:24;;;;;;;6.67;4.13;;;;;;;;;;5012889;28;20315;-79
2022/09/29 09:40:52;;;;;;;4.97;4.23;;;;;;;;;;5013059;28;20182;-79
2022/09/29 09:43:27;;;;;;;5.80;4.13;;;;;;;;;;5012897;28;20550;-79
2022/09/29 09:46:02;;;;;;;4.97;3.07;;;;;;;;;;5012789;28;20741;-79
2022/09/29 09:48:35;;;;;;;4.57;3.50;;;;;;;;;;4997754;28;20185;-79
2022/09/29 09:51:10;;;;;;;4.17;3.07;;;;;;;;;;5012577;28;20179;-79
2022/09/29 09:53:41;;;;;;;4.10;3.37;;;;;;;;;;5012551;28;20199;-79
2022/09/29 09:56:25;;;;;;;5.70;4.23;;;;;;;;;;5012217;28;20175;-79
2022/09/29 09:59:02;;;;;;;4.80;3.23;;;;;;;;;;5012067;28;20175;-80
2022/09/29 10:01:28;;;;;;;2.87;2.43;;;;;;;;;;4996468;28;20171;-79
2022/09/29 10:03:54;;;;;;;4.60;3.10;;;;;;;;;;5012307;28;20196;-79
2022/09/29 10:06:20;;;;;;;4.93;3.60;;;;;;;;;;4984644;28;20276;-79
2022/09/29 10:08:46;;;;;;;4.47;3.23;;;;;;;;;;4995080;28;20218;-80
2022/09/29 10:11:15;;;;;;;5.60;3.10;;;;;;;;;;4995582;28;20210;-80
2022/09/29 10:13:41;;;;;;;5.70;3.63;;;;;;;;;;5011982;28;20191;-79
2022/09/29 10:16:20;;;;;;;5.20;3.67;;;;;;;;;;4995749;28;20180;-80
2022/09/29 10:18:51;;;;;;;5.37;3.73;;;;;;;;;;5011717;28;20180;-81
2022/09/29 10:21:28;;;;;;;4.80;3.30;;;;;;;;;;5011726;28;20171;-79
2022/09/29 10:24:01;;;;;;;4.67;3.37;;;;;;;;;;5011790;28;20857;-80
2022/09/29 10:26:33;;;;;;;3.13;2.70;;;;;;;;;;5011526;28;20194;-80
2022/09/29 10:29:23;;;;;;;5.10;2.87;;;;;;;;;;5011321;28;20605;-81
2022/09/29 10:32:06;;;;;;;3.67;2.80;;;;;;;;;;4992189;28;20191;-81
2022/09/29 10:34:33;;;;;;;3.50;3.00;;;;;;;;;;5022203;23;20292;-79
2022/09/29 10:37:01;;;;;;;3.37;2.97;;;;;;;;;;5014258;28;20199;-78
2022/09/29 10:39:31;;;;;;;3.57;2.53;;;;;;;;;;5014440;28;20170;-79
2022/09/29 10:41:57;;;;;;;3.47;2.60;;;;;;;;;;4998140;28;20171;-79
2022/09/29 10:44:23;;;;;;;2.90;2.60;;;;;;;;;;4997321;28;20199;-79
2022/09/29 10:46:49;;;;;;;2.60;2.20;;;;;;;;;;4978423;28;20168;-79
2022/09/29 10:49:20;;;;;;;3.67;2.80;;;;;;;;;;4993679;28;20274;-79
2022/09/29 10:51:49;;;;;;;3.57;3.20;;;;;;;;;;4977989;28;20191;-79
2022/09/29 10:54:16;;;;;;;5.80;2.80;;;;;;;;;;4994108;28;20662;-79
2022/09/29 10:56:49;;;;;;;4.40;2.70;;;;;;;;;;4994468;28;20172;-79
2022/09/29 10:59:16;;;;;;;6.30;2.87;;;;;;;;;;4978099;28;20214;-79
2022/09/29 11:01:50;;;;;;;3.33;2.80;;;;;;;;;;4978193;28;20180;-79
2022/09/29 11:04:24;;;;;;;3.20;2.80;;;;;;;;;;4993777;28;20196;-79
2022/09/29 11:06:51;;;;;;;3.37;2.70;;;;;;;;;;4995125;28;20630;-79
2022/09/29 11:09:17;;;;;;;2.53;2.13;;;;;;;;;;4995278;28;20246;-79
2022/09/29 11:11:46;;;;;;;4.67;2.80;;;;;;;;;;4993967;28;20258;-79
2022/09/29 11:14:24;;;;;;;3.27;2.57;;;;;;;;;;4993953;28;20199;-79
2022/09/29 11:16:55;;;;;;;2.67;2.00;;;;;;;;;;4993662;28;20229;-79
2022/09/29 11:19:21;;;;;;;4.50;2.67;;;;;;;;;;4977640;28;20195;-79
2022/09/29 11:21:56;;;;;;;3.20;2.67;;;;;;;;;;4993510;28;20187;-79
2022/09/29 11:24:37;;;;;;;2.97;2.60;;;;;;;;;;4994577;28;20222;-79
2022/09/29 11:27:03;;;;;;;3.20;2.27;;;;;;;;;;4993491;28;20187;-79
2022/09/29 11:29:36;;;;;;;5.37;2.60;;;;;;;;;;4994336;28;20191;-79
2022/09/29 11:32:14;;;;;;;4.10;2.50;;;;;;;;;;4993421;28;20207;-79
2022/09/29 11:34:46;;;;;;;4.47;2.30;;;;;;;;;;4993218;28;20294;-78
2022/09/29 11:37:31;;;;;;;2.90;1.80;;;;;;;;;;4993282;28;20183;-79
2022/09/29 11:39:57;;;;;;;3.67;1.90;;;;;;;;;;4993004;28;20191;-79
2022/09/29 11:42:31;;;;;;;3.53;1.70;;;;;;;;;;4993350;28;20183;-79
2022/09/29 11:45:02;;;;;;;2.97;1.90;;;;;;;;;;4993265;28;20172;-79
2022/09/29 11:47:39;;;;;;;3.63;1.97;;;;;;;;;;4977341;28;20284;-79
2022/09/29 11:50:24;;;;;;;3.10;1.90;;;;;;;;;;4992396;28;20253;-80
2022/09/29 11:53:02;;;;;;;1.97;1.50;;;;;;;;;;4992880;28;20299;-80
2022/09/29 11:55:47;;;;;;;2.83;1.20;;;;;;;;;;4992792;28;20258;-79
2022/09/29 11:58:19;;;;;;;3.10;1.30;;;;;;;;;;4992865;28;20249;-79
2022/09/29 12:00:45;;;;;;;1.97;1.33;;;;;;;;;;4992528;28;20183;-79
2022/09/29 12:03:30;;;;;;;1.27;1.10;;;;;;;;;;4992531;28;20200;-79
2022/09/29 12:06:28;;;;;;;2.77;1.07;;;;;;;;;;4992505;28;20199;-79
2022/09/29 12:09:02;;;;;;;2.20;1.53;;;;;;;;;;4992565;28;20243;-79
2022/09/29 12:11:28;;;;;;;2.37;1.40;;;;;;;;;;4994062;28;20175;-79
2022/09/29 12:14:08;;;;;;;1.97;1.23;;;;;;;;;;4991978;28;20204;-79
2022/09/29 12:16:37;;;;;;;1.43;1.20;;;;;;;;;;4995359;28;20172;-79
2022/09/29 12:19:11;;;;;;;3.00;1.30;;;;;;;;;;4992514;28;20218;-79
2022/09/29 12:21:41;;;;;;;2.67;1.30;;;;;;;;;;4992133;28;20325;-79
2022/09/29 12:24:36;;;;;;;1.37;1.27;;;;;;;;;;5008544;28;20633;-79
2022/09/29 12:27:05;;;;;;;1.93;1.20;;;;;;;;;;4996040;28;20233;-79
2022/09/29 12:29:37;;;;;;;1.33;1.07;;;;;;;;;;5008128;28;20253;-79
2022/09/29 12:32:39;;;;;;;1.77;1.30;;;;;;;;;;5008813;28;20218;-79
2022/09/29 12:35:11;;;;;;;1.93;1.60;;;;;;;;;;5010641;28;20186;-79
2022/09/29 12:37:47;;;;;;;3.10;1.80;;;;;;;;;;4991914;28;20180;-79
2022/09/29 12:40:29;;;;;;;2.47;1.83;;;;;;;;;;5008211;28;20190;-79
2022/09/29 12:43:19;;;;;;;1.80;1.70;;;;;;;;;;4992773;28;20673;-79
2022/09/29 12:45:59;;;;;;;1.40;1.30;;;;;;;;;;5008362;28;20176;-79
2022/09/29 12:48:29;;;;;;;2.63;1.23;;;;;;;;;;5008542;28;20183;-79
2022/09/29 12:50:58;;;;;;;1.97;1.20;;;;;;;;;;5007026;28;20210;-79
2022/09/29 12:53:24;;;;;;;1.30;1.20;;;;;;;;;;5008617;28;20196;-79
2022/09/29 12:55:57;;;;;;;1.00;1.00;;;;;;;;;;5008507;28;20234;-79
2022/09/29 12:58:39;;;;;;;1.00;0.90;;;;;;;;;;5008458;28;20180;-79
2022/09/29 13:01:27;;;;;;;2.13;1.00;;;;;;;;;;5009903;28;20270;-79
2022/09/29 13:03:59;;;;;;;2.67;1.00;;;;;;;;;;5013002;28;20203;-79
2022/09/29 13:06:31;;;;;;;2.07;1.13;;;;;;;;;;5012554;28;20183;-80
2022/09/29 13:09:12;;;;;;;1.80;1.00;;;;;;;;;;5012624;28;20183;-80
2022/09/29 13:11:44;;;;;;;2.90;1.10;;;;;;;;;;5012866;28;20210;-80
2022/09/29 13:14:13;;;;;;;1.00;1.00;;;;;;;;;;5012829;28;20199;-80
2022/09/29 13:16:59;;;;;;;1.17;0.90;;;;;;;;;;5012794;28;20708;-80
2022/09/29 13:19:43;;;;;;;1.97;1.00;;;;;;;;;;5013028;28;20207;-79
2022/09/29 13:22:28;;;;;;;1.73;1.60;;;;;;;;;;5012935;28;20184;-79
2022/09/29 13:24:59;;;;;;;1.77;1.63;;;;;;;;;;4997416;28;20179;-79
2022/09/29 13:27:29;;;;;;;2.87;2.10;;;;;;;;;;5012436;28;20643;-78
2022/09/29 13:30:02;;;;;;;2.90;1.77;;;;;;;;;;5012670;28;20286;-78
2022/09/29 13:32:29;;;;;;;2.37;1.83;;;;;;;;;;5012134;28;20266;-79
2022/09/29 13:34:56;;;;;;;2.63;2.00;;;;;;;;;;5012560;28;20168;-79
2022/09/29 13:37:24;;;;;;;2.97;1.80;;;;;;;;;;4996159;28;20190;-79
2022/09/29 13:40:06;;;;;;;3.30;2.00;;;;;;;;;;5012121;28;20184;-79
2022/09/29 13:42:41;;;;;;;3.27;1.83;;;;;;;;;;5012180;28;20549;-79
2022/09/29 13:45:19;;;;;;;4.20;1.90;;;;;;;;;;5012165;28;20210;-79
2022/09/29 13:47:52;;;;;;;2.00;1.70;;;;;;;;;;5012040;28;20202;-79
2022/09/29 13:50:38;;;;;;;2.53;1.83;;;;;;;;;;5011852;28;20301;-79
2022/09/29 13:53:19;;;;;;;1.90;1.80;;;;;;;;;;5012038;28;20199;-79
2022/09/29 13:56:03;;;;;;;3.00;1.90;;;;;;;;;;5012209;28;20243;-80
2022/09/29 13:58:38;;;;;;;1.90;1.70;;;;;;;;;;5011839;28;20183;-79
2022/09/29 14:01:08;;;;;;;3.63;1.70;;;;;;;;;;5012057;28;20653;-79
2022/09/29 14:03:42;;;;;;;3.13;1.50;;;;;;;;;;4995220;28;20230;-79
2022/09/29 14:06:15;;;;;;;2.90;1.60;;;;;;;;;;4995580;28;20232;-79
2022/09/29 14:08:54;;;;;;;1.87;1.63;;;;;;;;;;4995365;28;20282;-79
2022/09/29 14:11:23;;;;;;;3.97;1.60;;;;;;;;;;5011431;28;20183;-80
2022/09/29 14:13:49;;;;;;;2.43;1.50;;;;;;;;;;5011141;28;20246;-78
2022/09/29 14:16:27;;;;;;;1.60;1.50;;;;;;;;;;5011331;28;20651;-79
2022/09/29 14:18:53;;;;;;;1.77;1.30;;;;;;;;;;5011676;28;20219;-79
2022/09/29 14:21:37;;;;;;;2.10;1.50;;;;;;;;;;5011242;28;20179;-79
2022/09/29 14:24:03;;;;;;;2.37;1.50;;;;;;;;;;5011442;28;20229;-79
2022/09/29 14:26:46;;;;;;;1.40;1.30;;;;;;;;;;4995184;28;20183;-79
2022/09/29 14:29:15;;;;;;;1.93;1.80;;;;;;;;;;5011313;28;20199;-79
2022/09/29 14:31:44;;;;;;;2.50;1.60;;;;;;;;;;5011376;28;20183;-79
2022/09/29 14:34:11;;;;;;;1.73;1.53;;;;;;;;;;5010716;28;20218;-79
2022/09/29 14:36:41;;;;;;;1.83;1.60;;;;;;;;;;4995887;28;20230;-79
2022/09/29 14:39:09;;;;;;;1.93;1.40;;;;;;;;;;4995898;28;20240;-79
2022/09/29 14:41:40;;;;;;;2.23;2.00;;;;;;;;;;5011316;28;20187;-79
2022/09/29 14:44:08;;;;;;;4.53;2.10;;;;;;;;;;5011162;28;20203;-79
2022/09/29 14:51:56;;;;;;;2.00;1.80;;;;;;;;;;4995602;28;20207;-79
2022/09/29 14:52:40;;;;;;;2.03;1.80;;;;;;;;;;4995432;28;20175;-79
2022/09/29 14:55:28;;;;;;;3.23;2.10;;;;;;;;;;5001376;28;20203;-79
2022/09/29 14:58:13;;;;;;;2.80;2.60;;;;;;;;;;5010673;28;20168;-79
2022/09/29 15:00:57;;;;;;;2.50;2.30;;;;;;;;;;5011076;28;20195;-79
2022/09/29 15:06:28;;;;;;;21.63;14.77;;;;;;;;;;4995459;28;20155;-79
2022/09/29 15:08:54;;;;;;;2.27;1.90;;;;;;;;;;4993999;28;20190;-79
2022/09/29 15:11:45;;;;;;;2.40;2.10;;;;;;;;;;5010517;28;20176;-79